createdAt,value
2023-05-20T00:00:56.419Z,100526.91
2023-05-20T00:03:25.378Z,100522.63
2023-05-20T00:05:53.107Z,100520.03
2023-05-20T00:08:20.574Z,100523.69
2023-05-20T00:10:48.110Z,100518.16
2023-05-20T00:13:15.660Z,100528.88
2023-05-20T00:15:43.197Z,100519.34
2023-05-20T00:18:10.757Z,100513.63
2023-05-20T00:20:39.642Z,100515.94
2023-05-20T00:23:07.133Z,100521.38
2023-05-20T00:25:34.852Z,100518.00
2023-05-20T00:28:02.542Z,100519.03
2023-05-20T00:30:30.093Z,100519.97
2023-05-20T00:32:57.596Z,100513.91
2023-05-20T00:35:25.079Z,100513.19
2023-05-20T00:37:53.935Z,100521.56
2023-05-20T00:40:22.231Z,100519.72
2023-05-20T00:42:49.706Z,100524.25
2023-05-20T00:45:17.285Z,100515.94
2023-05-20T00:47:45.143Z,100509.94
2023-05-20T00:50:12.807Z,100516.31
2023-05-20T00:52:41.544Z,100518.69
2023-05-20T00:55:10.891Z,100509.38
2023-05-20T00:57:38.371Z,100511.03
2023-05-20T01:00:08.406Z,100510.31
2023-05-20T01:02:35.925Z,100506.38
2023-05-20T01:05:03.758Z,100500.69
2023-05-20T01:07:31.861Z,100496.44
2023-05-20T01:10:00.032Z,100503.81
2023-05-20T01:12:32.707Z,100499.56
2023-05-20T01:15:09.497Z,100501.81
2023-05-20T01:17:40.358Z,100497.63
2023-05-20T01:20:10.708Z,100497.91
2023-05-20T01:22:40.098Z,100493.19
2023-05-20T01:25:08.106Z,100494.38
2023-05-20T01:27:35.787Z,100494.94
2023-05-20T01:30:03.410Z,100496.19
2023-05-20T01:32:35.711Z,100499.28
2023-05-20T01:35:04.664Z,100497.03
2023-05-20T01:37:33.207Z,100483.09
2023-05-20T01:40:02.343Z,100487.66
2023-05-20T01:42:30.214Z,100481.97
2023-05-20T01:44:57.843Z,100476.22
2023-05-20T01:47:25.653Z,100467.97
2023-05-20T01:49:54.092Z,100467.34
2023-05-20T01:52:22.679Z,100474.03
2023-05-20T01:54:51.761Z,100464.56
2023-05-20T01:57:22.068Z,100464.47
2023-05-20T01:59:49.801Z,100470.47
2023-05-20T02:02:17.835Z,100470.59
2023-05-20T02:04:48.180Z,100474.91
2023-05-20T02:07:15.830Z,100472.97
2023-05-20T02:09:43.525Z,100470.78
2023-05-20T02:12:16.361Z,100474.84
2023-05-20T02:14:45.770Z,100464.06
2023-05-20T02:17:14.504Z,100475.19
2023-05-20T02:19:42.084Z,100466.66
2023-05-20T02:22:09.599Z,100470.91
2023-05-20T02:24:37.180Z,100470.94
2023-05-20T02:27:06.173Z,100470.13
2023-05-20T02:29:33.774Z,100478.50
2023-05-20T02:32:02.647Z,100482.13
2023-05-20T02:34:31.552Z,100484.56
2023-05-20T02:36:59.245Z,100482.16
2023-05-20T02:39:28.311Z,100477.63
2023-05-20T02:41:56.212Z,100479.94
2023-05-20T02:44:23.716Z,100491.63
2023-05-20T02:46:51.368Z,100486.84
2023-05-20T02:49:20.342Z,100489.06
2023-05-20T02:51:47.826Z,100492.06
2023-05-20T02:54:15.445Z,100482.06
2023-05-20T02:56:43.006Z,100473.28
2023-05-20T02:59:10.552Z,100478.00
2023-05-20T03:01:38.132Z,100475.13
2023-05-20T03:04:05.744Z,100476.78
2023-05-20T03:06:34.877Z,100474.88
2023-05-20T03:09:02.679Z,100475.34
2023-05-20T03:11:30.162Z,100476.22
2023-05-20T03:13:57.679Z,100468.38
2023-05-20T03:16:25.415Z,100464.34
2023-05-20T03:18:54.458Z,100460.59
2023-05-20T03:21:23.779Z,100470.25
2023-05-20T03:23:52.691Z,100461.31
2023-05-20T03:26:21.684Z,100465.34
2023-05-20T03:28:49.183Z,100459.28
2023-05-20T03:31:17.554Z,100461.47
2023-05-20T03:33:46.019Z,100455.56
2023-05-20T03:36:13.569Z,100454.38
2023-05-20T03:38:41.192Z,100457.34
2023-05-20T03:41:10.096Z,100465.88
2023-05-20T03:43:37.594Z,100461.31
2023-05-20T03:46:05.148Z,100462.13
2023-05-20T03:48:32.671Z,100462.19
2023-05-20T03:51:01.807Z,100468.84
2023-05-20T03:53:29.353Z,100466.69
2023-05-20T03:55:56.833Z,100464.94
2023-05-20T03:58:26.266Z,100460.00
2023-05-20T04:00:53.798Z,100450.69
2023-05-20T04:03:22.689Z,100456.34
2023-05-20T04:05:50.416Z,100446.56
2023-05-20T04:08:18.804Z,100437.22
2023-05-20T04:10:47.006Z,100449.59
2023-05-20T04:13:15.533Z,100454.09
2023-05-20T04:15:44.421Z,100456.59
2023-05-20T04:18:11.975Z,100468.31
2023-05-20T04:20:41.322Z,100461.97
2023-05-20T04:23:08.906Z,100453.94
2023-05-20T04:25:36.956Z,100460.69
2023-05-20T04:28:04.881Z,100462.13
2023-05-20T04:30:33.392Z,100463.03
2023-05-20T04:33:03.450Z,100460.53
2023-05-20T04:35:31.449Z,100460.38
2023-05-20T04:37:59.284Z,100456.09
2023-05-20T04:40:27.354Z,100452.19
2023-05-20T04:42:55.797Z,100460.72
2023-05-20T04:45:23.903Z,100458.84
2023-05-20T04:47:54.972Z,100464.28
2023-05-20T04:50:23.873Z,100459.19
2023-05-20T04:52:51.652Z,100457.31
2023-05-20T04:55:21.452Z,100465.56
2023-05-20T04:57:49.143Z,100464.13
2023-05-20T05:00:16.931Z,100463.84
2023-05-20T05:02:44.504Z,100464.53
2023-05-20T05:05:12.090Z,100462.41
2023-05-20T05:07:40.914Z,100470.00
2023-05-20T05:10:09.474Z,100459.84
2023-05-20T05:12:36.975Z,100460.78
2023-05-20T05:15:05.070Z,100462.84
2023-05-20T05:17:32.618Z,100463.38
2023-05-20T05:20:00.237Z,100463.41
2023-05-20T05:22:27.727Z,100460.78
2023-05-20T05:24:56.644Z,100463.94
2023-05-20T05:27:24.192Z,100455.03
2023-05-20T05:29:51.680Z,100454.44
2023-05-20T05:32:19.265Z,100454.38
2023-05-20T05:34:46.888Z,100459.09
2023-05-20T05:37:14.424Z,100461.38
2023-05-20T05:39:41.954Z,100458.19
2023-05-20T05:42:10.775Z,100457.97
2023-05-20T05:44:38.347Z,100445.16
2023-05-20T05:47:06.647Z,100455.03
2023-05-20T05:49:34.940Z,100450.47
2023-05-20T05:52:02.457Z,100446.38
2023-05-20T05:54:30.222Z,100451.38
2023-05-20T05:56:57.819Z,100451.44
2023-05-20T05:59:26.706Z,100439.03
2023-05-20T06:01:54.239Z,100442.31
2023-05-20T06:04:21.929Z,100448.66
2023-05-20T06:06:49.640Z,100438.06
2023-05-20T06:09:17.156Z,100439.03
2023-05-20T06:11:44.736Z,100434.47
2023-05-20T06:14:12.337Z,100446.94
2023-05-20T06:16:41.259Z,100434.72
2023-05-20T06:19:09.327Z,100433.59
2023-05-20T06:21:37.043Z,100436.56
2023-05-20T06:24:04.862Z,100433.06
2023-05-20T06:26:32.424Z,100427.25
2023-05-20T06:28:59.942Z,100427.88
2023-05-20T06:31:27.619Z,100431.25
2023-05-20T06:33:56.998Z,100418.19
2023-05-20T06:36:24.486Z,100427.84
2023-05-20T06:38:51.980Z,100433.56
2023-05-20T06:41:19.734Z,100430.03
2023-05-20T06:43:47.931Z,100435.91
2023-05-20T06:46:15.519Z,100437.03
2023-05-20T06:48:43.113Z,100431.50
2023-05-20T06:51:11.968Z,100429.16
2023-05-20T06:53:39.458Z,100434.09
2023-05-20T06:56:07.146Z,100428.53
2023-05-20T06:58:34.692Z,100421.25
2023-05-20T07:01:02.207Z,100426.25
2023-05-20T07:03:29.807Z,100428.72
2023-05-20T07:05:57.360Z,100417.47
2023-05-20T07:08:26.318Z,100415.91
2023-05-20T07:10:56.523Z,100419.81
2023-05-20T07:13:24.212Z,100415.03
2023-05-20T07:15:51.708Z,100407.09
2023-05-20T07:18:19.448Z,100420.72
2023-05-20T07:20:46.998Z,100415.88
2023-05-20T07:23:15.750Z,100409.78
2023-05-20T07:25:44.706Z,100404.22
2023-05-20T07:28:12.218Z,100401.19
2023-05-20T07:30:39.720Z,100392.97
2023-05-20T07:33:07.369Z,100391.34
2023-05-20T07:35:34.944Z,100381.88
2023-05-20T07:38:02.633Z,100386.75
2023-05-20T07:40:30.087Z,100385.22
2023-05-20T07:42:59.064Z,100379.75
2023-05-20T07:45:26.570Z,100378.59
2023-05-20T07:47:54.189Z,100385.41
2023-05-20T07:50:21.807Z,100391.44
2023-05-20T07:52:56.627Z,100380.72
2023-05-20T07:55:24.323Z,100388.41
2023-05-20T07:57:51.917Z,100378.25
2023-05-20T08:00:21.274Z,100393.41
2023-05-20T08:02:48.822Z,100377.28
2023-05-20T08:05:16.530Z,100387.25
2023-05-20T08:07:44.042Z,100383.28
2023-05-20T08:10:12.006Z,100391.66
2023-05-20T08:12:39.526Z,100377.59
2023-05-20T08:15:08.233Z,100378.41
2023-05-20T08:17:38.607Z,100373.13
2023-05-20T08:20:08.192Z,100370.91
2023-05-20T08:22:36.042Z,100367.81
2023-05-20T08:25:04.003Z,100368.94
2023-05-20T08:27:31.528Z,100379.53
2023-05-20T08:30:00.645Z,100372.28
2023-05-20T08:32:28.743Z,100373.31
2023-05-20T08:34:57.558Z,100379.34
2023-05-20T08:37:25.038Z,100373.34
2023-05-20T08:39:52.483Z,100370.41
2023-05-20T08:42:23.566Z,100372.44
2023-05-20T08:44:52.533Z,100368.59
2023-05-20T08:47:21.677Z,100378.13
2023-05-20T08:49:49.319Z,100374.72
2023-05-20T08:52:22.077Z,100366.06
2023-05-20T08:54:51.463Z,100369.28
2023-05-20T08:57:20.281Z,100368.78
2023-05-20T08:59:48.133Z,100370.28
2023-05-20T09:02:16.147Z,100363.03
2023-05-20T09:04:43.777Z,100371.59
2023-05-20T09:07:11.348Z,100368.25
2023-05-20T09:09:41.168Z,100371.84
2023-05-20T09:12:08.774Z,100375.44
2023-05-20T09:14:36.375Z,100370.75
2023-05-20T09:17:05.619Z,100380.22
2023-05-20T09:19:34.489Z,100383.19
2023-05-20T09:22:05.039Z,100377.97
2023-05-20T09:24:32.613Z,100379.22
2023-05-20T09:27:01.622Z,100382.13
2023-05-20T09:29:29.194Z,100381.69
2023-05-20T09:31:57.405Z,100375.38
2023-05-20T09:34:24.983Z,100378.44
2023-05-20T09:36:53.179Z,100382.06
2023-05-20T09:39:27.121Z,100372.72
2023-05-20T09:41:58.625Z,100382.84
2023-05-20T09:44:29.030Z,100379.69
2023-05-20T09:46:57.892Z,100384.31
2023-05-20T09:49:26.893Z,100376.81
2023-05-20T09:51:54.734Z,100374.50
2023-05-20T09:54:25.552Z,100371.69
2023-05-20T09:56:54.314Z,100367.66
2023-05-20T09:59:23.334Z,100366.47
2023-05-20T10:01:52.200Z,100364.66
2023-05-20T10:04:21.752Z,100360.22
2023-05-20T10:07:03.249Z,100356.16
2023-05-20T10:09:48.410Z,100354.66
2023-05-20T10:12:26.771Z,100359.63
2023-05-20T10:15:04.014Z,100347.13
2023-05-20T10:17:42.625Z,100347.50
2023-05-20T10:20:12.057Z,100352.09
2023-05-20T10:22:40.578Z,100358.50
2023-05-20T10:25:13.921Z,100343.94
2023-05-20T10:27:46.322Z,100341.16
2023-05-20T10:30:17.492Z,100339.75
2023-05-20T10:32:54.462Z,100340.06
2023-05-20T10:35:26.222Z,100343.53
2023-05-20T10:37:54.827Z,100346.50
2023-05-20T10:40:23.342Z,100346.69
2023-05-20T10:42:50.843Z,100347.00
2023-05-20T10:45:28.924Z,100342.78
2023-05-20T10:47:59.185Z,100334.00
2023-05-20T10:50:31.394Z,100332.19
2023-05-20T10:53:05.842Z,100334.16
2023-05-20T10:55:39.222Z,100329.66
2023-05-20T10:58:07.643Z,100327.69
2023-05-20T11:00:37.345Z,100324.06
2023-05-20T11:03:08.272Z,100322.56
2023-05-20T11:05:36.980Z,100315.53
2023-05-20T11:08:13.673Z,100315.53
2023-05-20T11:10:52.069Z,100318.47
2023-05-20T11:13:19.686Z,100311.16
2023-05-20T11:15:49.749Z,100313.38
2023-05-20T11:18:19.065Z,100305.06
2023-05-20T11:20:47.693Z,100310.59
2023-05-20T11:23:16.321Z,100309.34
2023-05-20T11:25:43.947Z,100305.75
2023-05-20T11:28:14.021Z,100301.41
2023-05-20T11:30:42.206Z,100306.63
2023-05-20T11:33:13.684Z,100295.97
2023-05-20T11:35:46.996Z,100300.75
2023-05-20T11:38:15.006Z,100288.81
2023-05-20T11:40:51.142Z,100290.69
2023-05-20T11:43:20.040Z,100283.69
2023-05-20T11:45:49.645Z,100286.00
2023-05-20T11:48:17.218Z,100276.69
2023-05-20T11:50:47.740Z,100274.69
2023-05-20T11:53:16.491Z,100280.72
2023-05-20T11:55:49.426Z,100275.56
2023-05-20T11:58:17.570Z,100260.44
2023-05-20T12:00:52.875Z,100257.00
2023-05-20T12:03:25.234Z,100251.78
2023-05-20T12:05:54.456Z,100244.91
2023-05-20T12:08:22.565Z,100251.03
2023-05-20T12:10:50.150Z,100245.91
2023-05-20T12:13:19.180Z,100243.72
2023-05-20T12:15:46.740Z,100251.47
2023-05-20T12:18:14.271Z,100249.41
2023-05-20T12:20:41.787Z,100243.25
2023-05-20T12:23:10.626Z,100241.03
2023-05-20T12:25:38.089Z,100240.28
2023-05-20T12:28:06.715Z,100246.81
2023-05-20T12:30:34.456Z,100237.13
2023-05-20T12:33:02.445Z,100230.47
2023-05-20T12:35:38.294Z,100233.78
2023-05-20T12:38:06.022Z,100236.16
2023-05-20T12:40:35.875Z,100230.47
2023-05-20T12:43:05.873Z,100240.19
2023-05-20T12:45:33.421Z,100225.88
2023-05-20T12:48:01.257Z,100240.56
2023-05-20T12:50:29.319Z,100233.38
2023-05-20T12:52:56.861Z,100226.41
2023-05-20T12:55:24.445Z,100228.38
2023-05-20T12:57:53.544Z,100234.41
2023-05-20T13:00:21.052Z,100231.19
2023-05-20T13:02:48.757Z,100225.78
2023-05-20T13:05:16.337Z,100224.34
2023-05-20T13:07:43.831Z,100223.59
2023-05-20T13:10:11.999Z,100220.41
2023-05-20T13:12:39.589Z,100219.19
2023-05-20T13:15:09.667Z,100208.31
2023-05-20T13:17:38.102Z,100213.47
2023-05-20T13:20:06.540Z,100213.75
2023-05-20T13:22:34.109Z,100206.66
2023-05-20T13:25:01.753Z,100206.56
2023-05-20T13:27:29.270Z,100201.44
2023-05-20T13:29:56.769Z,100193.13
2023-05-20T13:32:25.717Z,100198.41
2023-05-20T13:34:53.322Z,100199.63
2023-05-20T13:37:20.918Z,100202.53
2023-05-20T13:39:49.440Z,100197.06
2023-05-20T13:42:16.915Z,100190.19
2023-05-20T13:44:44.439Z,100190.53
2023-05-20T13:47:12.033Z,100191.72
2023-05-20T13:49:40.895Z,100189.53
2023-05-20T13:52:08.390Z,100186.50
2023-05-20T13:54:35.936Z,100185.13
2023-05-20T13:57:07.711Z,100179.72
2023-05-20T13:59:35.695Z,100185.28
2023-05-20T14:02:03.328Z,100187.72
2023-05-20T14:04:31.513Z,100187.97
2023-05-20T14:07:00.458Z,100169.31
2023-05-20T14:09:27.962Z,100172.09
2023-05-20T14:11:55.606Z,100170.38
2023-05-20T14:14:23.264Z,100160.94
2023-05-20T14:16:50.815Z,100156.53
2023-05-20T14:19:18.424Z,100153.75
2023-05-20T14:21:45.966Z,100148.41
2023-05-20T14:24:14.852Z,100148.13
2023-05-20T14:26:42.379Z,100146.16
2023-05-20T14:29:10.044Z,100139.78
2023-05-20T14:31:38.565Z,100144.56
2023-05-20T14:34:06.132Z,100149.19
2023-05-20T14:36:33.716Z,100143.91
2023-05-20T14:39:01.239Z,100141.72
2023-05-20T14:41:30.102Z,100143.97
2023-05-20T14:43:57.719Z,100140.78
2023-05-20T14:46:25.498Z,100132.31
2023-05-20T14:48:53.060Z,100134.16
2023-05-20T14:51:20.612Z,100130.56
2023-05-20T14:53:48.142Z,100136.66
2023-05-20T14:56:15.731Z,100128.13
2023-05-20T14:58:44.598Z,100127.78
2023-05-20T15:01:12.229Z,100135.75
2023-05-20T15:03:39.836Z,100130.09
2023-05-20T15:06:07.678Z,100131.97
2023-05-20T15:08:35.137Z,100130.25
2023-05-20T15:11:02.613Z,100128.38
2023-05-20T15:13:30.116Z,100121.88
2023-05-20T15:15:58.977Z,100139.50
2023-05-20T15:18:26.514Z,100131.22
2023-05-20T15:20:53.996Z,100142.09
2023-05-20T15:23:21.531Z,100132.06
2023-05-20T15:25:50.221Z,100129.44
2023-05-20T15:28:19.520Z,100140.50
2023-05-20T15:30:47.458Z,100141.72
2023-05-20T15:33:16.377Z,100138.06
2023-05-20T15:35:45.796Z,100137.03
2023-05-20T15:38:13.346Z,100139.16
2023-05-20T15:40:41.347Z,100147.88
2023-05-20T15:43:09.089Z,100133.84
2023-05-20T15:45:36.754Z,100133.97
2023-05-20T15:48:04.587Z,100136.03
2023-05-20T15:50:33.655Z,100136.66
2023-05-20T15:53:01.475Z,100133.28
2023-05-20T15:55:29.003Z,100127.50
2023-05-20T15:57:56.523Z,100131.78
2023-05-20T16:00:24.693Z,100125.19
2023-05-20T16:02:54.013Z,100122.97
2023-05-20T16:05:24.519Z,100123.31
2023-05-20T16:07:53.707Z,100117.44
2023-05-20T16:10:22.439Z,100119.47
2023-05-20T16:12:51.513Z,100125.88
2023-05-20T16:15:19.196Z,100110.19
2023-05-20T16:17:46.671Z,100113.91
2023-05-20T16:20:14.427Z,100106.38
2023-05-20T16:22:41.909Z,100113.75
2023-05-20T16:25:11.768Z,100115.97
2023-05-20T16:27:39.357Z,100107.78
2023-05-20T16:30:08.909Z,100116.00
2023-05-20T16:32:36.434Z,100108.97
2023-05-20T16:35:04.773Z,100116.75
2023-05-20T16:37:32.317Z,100100.75
2023-05-20T16:39:59.791Z,100099.09
2023-05-20T16:42:28.619Z,100095.25
2023-05-20T16:44:56.156Z,100095.72
2023-05-20T16:47:23.665Z,100106.59
2023-05-20T16:49:51.161Z,100113.34
2023-05-20T16:52:18.703Z,100113.88
2023-05-20T16:54:46.553Z,100111.06
2023-05-20T16:57:15.878Z,100109.22
2023-05-20T16:59:44.809Z,100110.94
2023-05-20T17:02:12.364Z,100116.56
2023-05-20T17:04:39.999Z,100110.84
2023-05-20T17:07:09.708Z,100124.56
2023-05-20T17:09:37.492Z,100124.13
2023-05-20T17:12:05.581Z,100130.03
2023-05-20T17:14:33.388Z,100123.84
2023-05-20T17:17:02.264Z,100127.59
2023-05-20T17:19:29.903Z,100126.34
2023-05-20T17:21:57.400Z,100136.59
2023-05-20T17:24:24.869Z,100137.81
2023-05-20T17:26:52.366Z,100137.00
2023-05-20T17:29:19.878Z,100136.31
2023-05-20T17:31:47.619Z,100128.25
2023-05-20T17:34:16.624Z,100128.47
2023-05-20T17:36:44.278Z,100129.09
2023-05-20T17:39:12.238Z,100124.09
2023-05-20T17:41:40.931Z,100124.38
2023-05-20T17:44:09.875Z,100128.00
2023-05-20T17:46:37.498Z,100129.03
2023-05-20T17:49:05.065Z,100134.63
2023-05-20T17:51:34.162Z,100127.53
2023-05-20T17:54:01.800Z,100133.91
2023-05-20T17:56:29.412Z,100124.13
2023-05-20T17:58:56.890Z,100120.88
2023-05-20T18:01:24.474Z,100131.38
2023-05-20T18:03:52.161Z,100138.72
2023-05-20T18:06:19.766Z,100129.94
2023-05-20T18:08:48.687Z,100124.97
2023-05-20T18:11:16.235Z,100131.22
2023-05-20T18:13:43.751Z,100127.09
2023-05-20T18:16:11.341Z,100128.88
2023-05-20T18:18:38.920Z,100119.06
2023-05-20T18:21:07.707Z,100119.28
2023-05-20T18:23:35.389Z,100130.38
2023-05-20T18:26:06.937Z,100136.03
2023-05-20T18:28:34.630Z,100136.56
2023-05-20T18:31:02.216Z,100127.19
2023-05-20T18:33:29.703Z,100139.25
2023-05-20T18:35:57.217Z,100132.03
2023-05-20T18:38:24.759Z,100136.44
2023-05-20T18:40:52.308Z,100137.88
2023-05-20T18:43:21.164Z,100139.81
2023-05-20T18:45:48.662Z,100134.81
2023-05-20T18:48:25.595Z,100137.03
2023-05-20T18:50:54.421Z,100134.47
2023-05-20T18:53:22.085Z,100137.69
2023-05-20T18:55:49.585Z,100142.09
2023-05-20T18:58:17.509Z,100139.94
2023-05-20T19:00:46.567Z,100145.88
2023-05-20T19:03:14.118Z,100138.53
2023-05-20T19:05:41.715Z,100136.19
2023-05-20T19:08:09.312Z,100137.34
2023-05-20T19:10:36.826Z,100138.13
2023-05-20T19:13:04.337Z,100146.63
2023-05-20T19:15:31.903Z,100140.03
2023-05-20T19:18:01.355Z,100137.72
2023-05-20T19:20:28.833Z,100143.00
2023-05-20T19:22:56.418Z,100147.03
2023-05-20T19:25:23.895Z,100145.94
2023-05-20T19:27:51.491Z,100144.84
2023-05-20T19:30:18.973Z,100151.09
2023-05-20T19:32:46.469Z,100140.72
2023-05-20T19:35:16.326Z,100145.59
2023-05-20T19:37:43.821Z,100151.09
2023-05-20T19:40:12.694Z,100144.84
2023-05-20T19:42:40.215Z,100145.75
2023-05-20T19:45:08.923Z,100151.44
2023-05-20T19:47:37.109Z,100143.25
2023-05-20T19:50:05.238Z,100146.53
2023-05-20T19:52:34.032Z,100147.97
2023-05-20T19:55:01.772Z,100149.47
2023-05-20T19:57:29.260Z,100153.03
2023-05-20T19:59:56.756Z,100153.03
2023-05-20T20:02:24.279Z,100149.06
2023-05-20T20:04:51.884Z,100151.25
2023-05-20T20:07:19.390Z,100151.66
2023-05-20T20:09:51.353Z,100147.84
2023-05-20T20:12:18.903Z,100151.63
2023-05-20T20:14:46.485Z,100152.16
2023-05-20T20:17:15.622Z,100155.13
2023-05-20T20:19:45.961Z,100143.31
2023-05-20T20:22:13.546Z,100150.13
2023-05-20T20:24:41.123Z,100147.06
2023-05-20T20:27:10.495Z,100142.50
2023-05-20T20:29:37.993Z,100142.56
2023-05-20T20:32:06.394Z,100145.56
2023-05-20T20:34:33.959Z,100148.78
2023-05-20T20:37:01.859Z,100147.72
2023-05-20T20:39:29.688Z,100151.78
2023-05-20T20:41:58.862Z,100147.84
2023-05-20T20:44:28.986Z,100141.91
2023-05-20T20:46:58.159Z,100136.63
2023-05-20T20:49:27.649Z,100142.97
2023-05-20T20:51:56.036Z,100145.31
2023-05-20T20:54:23.543Z,100140.28
2023-05-20T20:56:51.811Z,100148.72
2023-05-20T20:59:21.901Z,100146.09
2023-05-20T21:01:52.657Z,100149.97
2023-05-20T21:04:20.246Z,100147.75
2023-05-20T21:06:47.769Z,100139.09
2023-05-20T21:09:16.132Z,100138.22
2023-05-20T21:11:45.175Z,100138.03
2023-05-20T21:14:13.579Z,100126.91
2023-05-20T21:16:42.009Z,100122.22
2023-05-20T21:19:11.057Z,100106.72
2023-05-20T21:21:38.592Z,100109.94
2023-05-20T21:24:06.596Z,100112.38
2023-05-20T21:26:34.151Z,100113.78
2023-05-20T21:29:01.661Z,100116.03
2023-05-20T21:31:29.280Z,100122.44
2023-05-20T21:33:56.839Z,100114.84
2023-05-20T21:36:25.726Z,100111.50
2023-05-20T21:38:53.231Z,100110.38
2023-05-20T21:41:21.358Z,100118.91
2023-05-20T21:43:48.857Z,100107.97
2023-05-20T21:46:16.395Z,100103.38
2023-05-20T21:48:44.117Z,100105.34
2023-05-20T21:51:11.772Z,100101.41
2023-05-20T21:53:40.618Z,100096.56
2023-05-20T21:56:08.293Z,100100.44
2023-05-20T21:58:40.616Z,100095.84
2023-05-20T22:01:09.456Z,100096.38
2023-05-20T22:03:38.174Z,100094.28
2023-05-20T22:06:06.401Z,100088.53
2023-05-20T22:08:34.623Z,100089.28
2023-05-20T22:11:05.359Z,100081.19
2023-05-20T22:13:33.841Z,100084.00
2023-05-20T22:16:01.912Z,100074.91
2023-05-20T22:18:29.918Z,100070.22
2023-05-20T22:20:59.108Z,100065.81
2023-05-20T22:23:26.956Z,100064.66
2023-05-20T22:25:54.954Z,100061.34
2023-05-20T22:28:26.069Z,100062.78
2023-05-20T22:30:53.568Z,100065.63
2023-05-20T22:33:22.612Z,100062.22
2023-05-20T22:35:50.172Z,100058.97
2023-05-20T22:38:17.716Z,100052.28
2023-05-20T22:40:45.294Z,100045.09
2023-05-20T22:43:13.855Z,100051.84
2023-05-20T22:45:42.844Z,100045.75
2023-05-20T22:48:10.459Z,100042.03
2023-05-20T22:50:38.014Z,100046.22
2023-05-20T22:53:05.915Z,100037.75
2023-05-20T22:55:33.733Z,100047.16
2023-05-20T22:58:01.472Z,100041.47
2023-05-20T23:00:29.489Z,100041.75
2023-05-20T23:02:58.549Z,100036.22
2023-05-20T23:05:26.349Z,100038.41
2023-05-20T23:07:54.806Z,100038.47
2023-05-20T23:10:22.545Z,100039.56
2023-05-20T23:12:50.139Z,100033.16
2023-05-20T23:15:19.184Z,100039.97
2023-05-20T23:17:46.727Z,100029.41
2023-05-20T23:20:18.983Z,100023.19
2023-05-20T23:22:46.523Z,100021.94
2023-05-20T23:25:14.047Z,100020.22
2023-05-20T23:27:41.645Z,100019.63
2023-05-20T23:30:10.481Z,100008.81
2023-05-20T23:32:38.090Z,100016.19
2023-05-20T23:35:06.634Z,100011.63
2023-05-20T23:37:35.595Z,100004.25
2023-05-20T23:40:04.712Z,100006.25
2023-05-20T23:42:32.453Z,99996.94
2023-05-20T23:44:59.958Z,99994.25
2023-05-20T23:47:29.784Z,99988.63
2023-05-20T23:49:57.392Z,99993.22
2023-05-20T23:52:25.080Z,99984.41
2023-05-20T23:54:54.049Z,99982.59
2023-05-20T23:57:21.841Z,99979.66
2023-05-20T23:59:49.611Z,99971.78
